Sacramento, CA (95837)

1:19 AM PST on February 07, 2016 (GMT -0800)
MesoWest | | Change Station
CLOSE
Current Station
Personal Weather Station
Location: Sacramento, CA
Elevation: 20 ft
Nearby Weather Stations

Elev 20 ft 38.70 °N, 121.59 °W | Updated 69 days ago

Clear
Clear
45 °F
Feels Like 43 °F
N
4
Wind Variable Wind from North
Gusts mph

Today
High -- | Low -- °F
--% Chance of Precip.
Yesterday
High -- | Low -- °F
Precip. -- in
Pressure 30.30 in
Visibility 10.0 miles
Clouds Clear
Windchill 43 °F
Dew Point 41 °F
Humidity 85%
Rainfall in
Snow Depth Not available.
7:06 AM 5:34 PM
Waning Crescent, 2% visible
METAR KSMF 070853Z 35005KT 10SM CLR 08/05 A3030 RMK AO2 SLP260 T00780050 58009
Pressure 30.30 in
Visibility 10.0 miles
Clouds Clear
Windchill 43 °F
Dew Point 41 °F
Humidity 85%
Rainfall in
Snow Depth Not available.
7:06 AM 5:34 PM
Waning Crescent, 2% visible
METAR KSMF 070853Z 35005KT 10SM CLR 08/05 A3030 RMK AO2 SLP260 T00780050 58009

10-Day Weather Forecast

Almanac

Astronomy

Feb. 07, 2016 Rise Set
Actual Time
Civil Twilight
Nautical Twilight
Astronomical Twilight
Moon
Length of Visible Light
Length of Day
Tomorrow will be .
, % of the Moon is Illuminated

Today's Extremes

State Highs State Lows

Community

WunderPhotos

Upload Photos

1,891,171 photos uploaded!

WunderBlog® & News

Nearby

Air Quality

  Air Quality AQ Index Pollutant
Not available.

Snow Depth

Station Depth Elevation

Earthquake Activity

City Distance Mag. Time & Date
Minimum magnitude displayed is 2.5.

Coastal Water Temperatures

Place Temperature

Stations

Nearby Weather Stations

Station Location Temp. Windchill Dew Point Humidity Wind Precip. Elev Updated Type
                   

Watches & Warnings

There are currently no watches in effect.